EDT,Max TemperatureF,Mean TemperatureF,Min TemperatureF,Max Dew PointF,MeanDew PointF,Min DewpointF,Max Humidity, Mean Humidity, Min Humidity, Max Sea Level PressureIn, Mean Sea Level PressureIn, Min Sea Level PressureIn, Max VisibilityMiles, Mean VisibilityMiles, Min VisibilityMiles, Max Wind SpeedMPH, Mean Wind SpeedMPH, Max Gust SpeedMPH,PrecipitationIn, CloudCover, Events, WindDirDegrees
2013-7-1,78,71,64,68,65,64,100,85,69,30.04,29.87,29.78,10,10,8,15,6,24,0.13,7,Rain,169
2013-7-2,78,71,64,70,67,64,100,87,74,30.17,30.05,29.93,10,8,1,15,7,21,0.49,5,Rain,148
2013-7-3,76,71,66,70,66,65,100,87,74,30.28,30.18,30.09,10,10,7,14,8,21,0.16,6,Rain,149
2013-7-4,81,74,66,70,67,64,100,84,67,30.31,30.21,30.13,10,10,2,18,8,25,0.12,4,Rain,149
2013-7-5,81,74,66,71,68,66,100,81,62,30.26,30.17,30.13,10,10,2,22,7,29,0.17,4,Rain,170
2013-7-6,83,75,66,70,67,65,100,78,55,30.28,30.16,30.08,10,10,10,15,8,23,0.11,3,Rain,160
2013-7-7,75,69,63,70,68,63,100,92,84,30.26,30.15,30.07,10,9,1,15,5,20,0.25,6,Rain,211
2013-7-8,81,72,63,67,65,63,100,79,58,30.27,30.17,30.11,10,10,9,12,4,15,0.00,4,,238
2013-7-9,85,76,66,70,67,65,93,76,58,30.15,30.10,30.05,10,10,10,10,4,14,0.00,3,,223
2013-7-10,82,74,66,73,70,66,100,87,74,30.09,30.01,29.94,10,8,2,25,4,31,0.56,6,Rain,213
2013-7-11,80,72,64,70,67,64,100,84,67,30.06,29.98,29.90,10,10,2,16,4,18,0.00,6,,318
2013-7-12,75,68,60,66,64,60,100,87,73,30.11,30.02,29.91,10,7,0,15,6,21,0.34,6,Fog-Rain,23
2013-7-13,76,67,57,68,64,58,100,87,74,30.26,30.15,30.05,10,10,10,16,7,22,0.00,5,,122
2013-7-14,82,75,68,70,68,66,100,84,67,30.37,30.25,30.16,10,10,7,21,10,29,T,5,Rain,132
2013-7-15,86,76,66,70,66,60,100,72,44,30.45,30.31,30.26,10,10,10,9,3,14,0.00,1,,146
2013-7-16,87,76,64,68,66,63,93,71,48,30.44,30.29,30.25,10,10,10,12,3,15,0.00,1,,353
2013-7-17,86,77,68,72,70,66,97,79,61,30.39,30.26,30.18,10,8,2,14,4,17,0.01,3,Rain,359
2013-7-18,87,78,69,73,71,69,100,79,57,30.32,30.20,30.08,10,4,0,6,2,13,0.00,4,Fog,184
2013-7-19,86,77,68,72,70,66,100,83,65,30.17,30.05,29.96,10,7,2,14,5,20,T,1,Rain,222
2013-7-20,85,75,65,72,68,65,97,78,58,30.10,29.98,29.88,10,9,0,16,5,23,0.38,4,Fog-Rain,247
2013-7-21,80,72,64,72,68,64,100,81,62,30.11,30.00,29.92,10,8,1,6,3,12,0.30,4,Rain,233
2013-7-22,80,74,67,72,68,66,100,88,76,30.04,29.93,29.80,10,8,0,15,5,22,0.40,6,Fog-Rain,224
2013-7-23,81,74,67,68,66,64,100,79,58,29.93,29.85,29.77,10,8,2,16,7,22,0.11,6,Rain,280
2013-7-24,78,70,61,67,64,61,100,82,64,30.02,29.90,29.76,10,9,2,16,6,18,0.06,6,Rain,323
2013-7-25,73,65,56,61,58,55,100,79,57,30.10,30.01,29.92,10,8,2,13,5,17,0.00,5,,360
2013-7-26,81,66,51,66,58,51,100,73,45,30.10,30.06,30.01,10,10,5,14,3,17,0.00,0,,232
2013-7-27,75,70,64,67,65,63,100,87,73,30.08,29.98,29.89,10,8,0,14,7,17,0.86,6,Fog-Rain,155
2013-7-28,75,66,57,64,61,57,100,81,61,30.07,29.98,29.89,10,10,3,16,5,18,T,6,Rain,253
2013-7-29,73,62,50,58,54,51,100,75,49,30.25,30.15,30.07,10,8,0,12,3,16,0.00,3,Fog,312
2013-7-30,78,65,51,63,56,51,100,73,46,30.26,30.21,30.16,10,10,10,10,2,13,0.00,1,,7
2013-7-31,65,63,61,64,63,61,100,94,87,30.19,30.12,30.00,10,6,1,10,4,13,0.17,8,Rain,160